地図

経路データ

SID SEASON NUMBER BASIN SUBBASIN NAME ISO_TIME NATURE LAT LON WMO_WIND WMO_PRES WMO_AGENCY TRACK_TYPE DIST2LAND LANDFALL IFLAG USA_AGENCY USA_ATCF_ID USA_LAT USA_LON USA_RECORD USA_STATUS USA_WIND USA_PRES USA_SSHS USA_R34_NE USA_R34_SE USA_R34_SW USA_R34_NW USA_R50_NE USA_R50_SE USA_R50_SW USA_R50_NW USA_R64_NE USA_R64_SE USA_R64_SW USA_R64_NW USA_POCI USA_ROCI USA_RMW USA_EYE TOKYO_LAT TOKYO_LON TOKYO_GRADE TOKYO_WIND TOKYO_PRES TOKYO_R50_DIR TOKYO_R50_LONG TOKYO_R50_SHORT TOKYO_R30_DIR TOKYO_R30_LONG TOKYO_R30_SHORT TOKYO_LAND CMA_LAT CMA_LON CMA_CAT CMA_WIND CMA_PRES HKO_LAT HKO_LON HKO_CAT HKO_WIND HKO_PRES NEWDELHI_LAT NEWDELHI_LON NEWDELHI_GRADE NEWDELHI_WIND NEWDELHI_PRES NEWDELHI_CI NEWDELHI_DP NEWDELHI_POCI REUNION_LAT REUNION_LON REUNION_TYPE REUNION_WIND REUNION_PRES REUNION_TNUM REUNION_CI REUNION_RMW REUNION_R34_NE REUNION_R34_SE REUNION_R34_SW REUNION_R34_NW REUNION_R50_NE REUNION_R50_SE REUNION_R50_SW REUNION_R50_NW REUNION_R64_NE REUNION_R64_SE REUNION_R64_SW REUNION_R64_NW BOM_LAT BOM_LON BOM_TYPE BOM_WIND BOM_PRES BOM_TNUM BOM_CI BOM_RMW BOM_R34_NE BOM_R34_SE BOM_R34_SW BOM_R34_NW BOM_R50_NE BOM_R50_SE BOM_R50_SW BOM_R50_NW BOM_R64_NE BOM_R64_SE BOM_R64_SW BOM_R64_NW BOM_ROCI BOM_POCI BOM_EYE BOM_POS_METHOD BOM_PRES_METHOD NADI_LAT NADI_LON NADI_CAT NADI_WIND NADI_PRES WELLINGTON_LAT WELLINGTON_LON WELLINGTON_WIND WELLINGTON_PRES DS824_LAT DS824_LON DS824_STAGE DS824_WIND DS824_PRES TD9636_LAT TD9636_LON TD9636_STAGE TD9636_WIND TD9636_PRES TD9635_LAT TD9635_LON TD9635_WIND TD9635_PRES TD9635_ROCI NEUMANN_LAT NEUMANN_LON NEUMANN_CLASS NEUMANN_WIND NEUMANN_PRES MLC_LAT MLC_LON MLC_CLASS MLC_WIND MLC_PRES USA_GUST BOM_GUST BOM_GUST_PER REUNION_GUST REUNION_GUST_PER USA_SEAHGT USA_SEARAD_NE USA_SEARAD_SE USA_SEARAD_SW USA_SEARAD_NW STORM_SPEED STORM_DIR
1898207N15118 1898 22 WP MM NOT_NAMED 1898-07-25 16:00:00 NR 14.5000 118.400 main 186 184 __________O___ -1 14.5000 118.400 7 10 324
1898207N15118 1898 22 WP MM NOT_NAMED 1898-07-25 18:00:00 NR 14.7671 118.204 main 194 194 __________P___ -1 14.7671 118.204 7 10 324
1898207N15118 1898 22 WP MM NOT_NAMED 1898-07-25 21:00:00 NR 15.1549 117.913 main 212 212 __________P___ -1 15.1549 117.913 7 9 324
1898207N15118 1898 22 WP MM NOT_NAMED 1898-07-26 00:00:00 NR 15.5102 117.636 main 231 229 __________P___ -1 15.5102 117.636 7 8 322
1898207N15118 1898 22 WP MM NOT_NAMED 1898-07-26 03:00:00 NR 15.8137 117.379 main 247 247 __________P___ -1 15.8137 117.379 7 8 320
1898207N15118 1898 22 WP MM NOT_NAMED 1898-07-26 04:00:00 NR 15.9000 117.300 main 256 256 __________O___ -1 15.9000 117.300 3 6 317
1898207N15118 1898 22 WP MM NOT_NAMED 1898-07-26 06:00:00 NR 16.0486 117.152 main 267 278 __________P___ -1 16.0486 117.152 3 6 314
1898207N15118 1898 22 WP MM NOT_NAMED 1898-07-26 09:00:00 NR 16.2273 116.949 main 300 300 __________P___ -1 16.2273 116.949 3 5 311
1898207N15118 1898 22 WP MM NOT_NAMED 1898-07-26 12:00:00 NR 16.3807 116.758 main 312 323 __________P___ -1 16.3807 116.758 3 5 310
1898207N15118 1898 22 WP MM NOT_NAMED 1898-07-26 15:00:00 NR 16.5402 116.566 main 335 335 __________P___ -1 16.5402 116.566 3 5 311
1898207N15118 1898 22 WP MM NOT_NAMED 1898-07-26 16:00:00 NR 16.6000 116.500 main 348 348 __________O___ -1 16.6000 116.500 4 6 317
1898207N15118 1898 22 WP MM NOT_NAMED 1898-07-26 18:00:00 NR 16.7495 116.358 main 360 373 __________P___ -1 16.7495 116.358 4 6 319
1898207N15118 1898 22 WP MM NOT_NAMED 1898-07-26 21:00:00 NR 16.9927 116.139 main 399 399 __________P___ -1 16.9927 116.139 4 7 320
1898207N15118 1898 22 WP MM NOT_NAMED 1898-07-27 00:00:00 NR 17.2503 115.913 main 430 430 __________P___ -1 17.2503 115.913 4 7 320
1898207N15118 1898 22 WP MM NOT_NAMED 1898-07-27 03:00:00 NR 17.5129 115.680 main 456 456 __________P___ -1 17.5129 115.680 4 7 320
1898207N15118 1898 22 WP MM NOT_NAMED 1898-07-27 04:00:00 NR 17.6000 115.600 main 469 469 __________O___ -1 17.6000 115.600 4 7 318
1898207N15118 1898 22 WP MM NOT_NAMED 1898-07-27 06:00:00 NR 17.7719 115.439 main 497 476 __________P___ -1 17.7719 115.439 4 7 318
1898207N15118 1898 22 WP MM NOT_NAMED 1898-07-27 09:00:00 NR 18.0298 115.191 main 476 435 __________P___ -1 18.0298 115.191 4 7 317
1898207N15118 1898 22 WP MM NOT_NAMED 1898-07-27 12:00:00 NR 18.2824 114.939 main 435 407 __________P___ -1 18.2824 114.939 4 7 316
1898207N15118 1898 22 WP MM NOT_NAMED 1898-07-27 15:00:00 NR 18.5233 114.685 main 407 394 __________P___ -1 18.5233 114.685 4 7 315
1898207N15118 1898 22 WP MM NOT_NAMED 1898-07-27 16:00:00 NR 18.6000 114.600 main 394 371 __________O___ -1 18.6000 114.600 4 6 312
1898207N15118 1898 22 WP MM NOT_NAMED 1898-07-27 18:00:00 NR 18.7421 114.433 main 371 344 __________P___ -1 18.7421 114.433 4 6 311
1898207N15118 1898 22 WP MM NOT_NAMED 1898-07-27 21:00:00 NR 18.9425 114.183 main 344 309 __________P___ -1 18.9425 114.183 4 6 310
1898207N15118 1898 22 WP MM NOT_NAMED 1898-07-28 00:00:00 NR 19.1362 113.933 main 309 285 __________P___ -1 19.1362 113.933 4 6 310
1898207N15118 1898 22 WP MM NOT_NAMED 1898-07-28 03:00:00 NR 19.3324 113.683 main 285 273 __________P___ -1 19.3324 113.683 4 6 310
1898207N15118 1898 22 WP MM NOT_NAMED 1898-07-28 04:00:00 NR 19.4000 113.600 main 273 251 __________O___ -1 19.4000 113.600 4 6 313
1898207N15118 1898 22 WP MM NOT_NAMED 1898-07-28 06:00:00 NR 19.5494 113.438 main 251 230 __________P___ -1 19.5494 113.438 4 6 315
1898207N15118 1898 22 WP MM NOT_NAMED 1898-07-28 09:00:00 NR 19.7800 113.196 main 231 200 __________P___ -1 19.7800 113.196 4 7 315
1898207N15118 1898 22 WP MM NOT_NAMED 1898-07-28 12:00:00 NR 20.0101 112.949 main 200 172 __________P___ -1 20.0101 112.949 4 7 313
1898207N15118 1898 22 WP MM NOT_NAMED 1898-07-28 15:00:00 NR 20.2304 112.690 main 172 159 __________P___ -1 20.2304 112.690 4 7 312
1898207N15118 1898 22 WP MM NOT_NAMED 1898-07-28 16:00:00 NR 20.3000 112.600 main 159 145 __________O___ -1 20.3000 112.600 4 6 308
1898207N15118 1898 22 WP MM NOT_NAMED 1898-07-28 18:00:00 NR 20.4253 112.419 main 145 113 __________P___ -1 20.4253 112.419 4 6 305
1898207N15118 1898 22 WP MM NOT_NAMED 1898-07-28 21:00:00 NR 20.6007 112.135 main 113 80 __________P___ -1 20.6007 112.135 4 6 302
1898207N15118 1898 22 WP MM NOT_NAMED 1898-07-29 00:00:00 NR 20.7693 111.834 main 80 59 __________P___ -1 20.7693 111.834 4 7 300
1898207N15118 1898 22 WP MM NOT_NAMED 1898-07-29 03:00:00 NR 20.9407 111.512 main 59 45 __________P___ -1 20.9407 111.512 4 7 300
1898207N15118 1898 22 WP MM NOT_NAMED 1898-07-29 04:00:00 NR 21.0000 111.400 main 45 33 __________O___ -1 21.0000 111.400 4 7 300
1898207N15118 1898 22 WP MM NOT_NAMED 1898-07-29 06:00:00 NR 21.1250 111.167 main 35 10 __________P___ -1 21.1250 111.167 4 8 300
1898207N15118 1898 22 WP MM NOT_NAMED 1898-07-29 09:00:00 NR 21.3187 110.799 main 10 0 __________P___ -1 21.3187 110.799 4 8 299
1898207N15118 1898 22 WP MM NOT_NAMED 1898-07-29 12:00:00 NR 21.5199 110.416 main 0 0 __________P___ -1 21.5199 110.416 4 8 300
1898207N15118 1898 22 WP MM NOT_NAMED 1898-07-29 15:00:00 NR 21.7287 110.029 main 0 0 __________P___ -1 21.7287 110.029 4 8 300
1898207N15118 1898 22 WP MM NOT_NAMED 1898-07-29 16:00:00 NR 21.8000 109.900 main 0 0 __________O___ -1 21.8000 109.900 4 8 301
1898207N15118 1898 22 WP MM NOT_NAMED 1898-07-29 18:00:00 NR 21.9451 109.645 main 0 0 __________P___ -1 21.9451 109.645 4 8 302
1898207N15118 1898 22 WP MM NOT_NAMED 1898-07-29 21:00:00 NR 22.1677 109.268 main 0 0 __________P___ -1 22.1677 109.268 4 8 303
1898207N15118 1898 22 WP MM NOT_NAMED 1898-07-30 00:00:00 NR 22.3946 108.895 main 0 0 __________P___ -1 22.3946 108.895 4 8 303
1898207N15118 1898 22 WP MM NOT_NAMED 1898-07-30 03:00:00 NR 22.6236 108.524 main 0 0 __________P___ -1 22.6236 108.524 4 8 304
1898207N15118 1898 22 WP MM NOT_NAMED 1898-07-30 04:00:00 NR 22.7000 108.400 main 0 __________O___ -1 22.7000 108.400 4 8 304

デジタル台風データ・検索

IBTrACS Databaseについて

本データベースは、米国NOAAが公開する1842年以降の世界の熱帯低気圧のベストトラックデータアーカイブInternational Best Track Archive for Climate Stewardship (IBTrACS)を、ウェブで閲覧しやすい形式に変換したものです。

最終更新日:2021-11-26